createdAt,value
2019-01-28T00:00:16.278Z,5.00
2019-01-28T00:02:45.148Z,4.99
2019-01-28T00:05:13.494Z,4.95
2019-01-28T00:07:41.884Z,4.94
2019-01-28T00:10:10.220Z,4.92
2019-01-28T00:12:39.161Z,4.92
2019-01-28T00:15:08.450Z,4.94
2019-01-28T00:17:36.987Z,4.98
2019-01-28T00:20:06.790Z,4.96
2019-01-28T00:22:35.137Z,4.93
2019-01-28T00:25:03.594Z,4.92
2019-01-28T00:27:31.936Z,4.90
2019-01-28T00:30:00.285Z,4.90
2019-01-28T00:32:28.652Z,4.85
2019-01-28T00:34:57.005Z,4.79
2019-01-28T00:37:25.371Z,4.85
2019-01-28T00:39:53.727Z,4.87
2019-01-28T00:42:22.075Z,4.92
2019-01-28T00:44:50.432Z,4.95
2019-01-28T00:47:18.773Z,4.95
2019-01-28T00:49:47.151Z,4.86
2019-01-28T00:52:15.518Z,4.82
2019-01-28T00:54:43.947Z,4.80
2019-01-28T00:57:12.414Z,4.81
2019-01-28T00:59:40.832Z,4.79
2019-01-28T01:02:10.015Z,4.70
2019-01-28T01:04:38.388Z,4.62
2019-01-28T01:07:06.735Z,4.65
2019-01-28T01:09:35.082Z,4.71
2019-01-28T01:12:03.443Z,4.78
2019-01-28T01:14:31.829Z,4.84
2019-01-28T01:17:00.225Z,4.83
2019-01-28T01:19:28.559Z,4.81
2019-01-28T01:21:56.909Z,4.82
2019-01-28T01:24:25.365Z,4.84
2019-01-28T01:26:53.712Z,4.88
2019-01-28T01:29:22.077Z,4.91
2019-01-28T01:31:52.114Z,4.95
2019-01-28T01:34:20.894Z,4.96
2019-01-28T01:36:49.255Z,4.96
2019-01-28T01:39:17.613Z,4.96
2019-01-28T01:41:46.320Z,4.98
2019-01-28T01:44:14.682Z,4.99
2019-01-28T01:46:43.030Z,4.97
2019-01-28T01:49:11.406Z,4.95
2019-01-28T01:51:39.775Z,4.93
2019-01-28T01:54:08.157Z,4.91
2019-01-28T01:56:36.499Z,4.88
2019-01-28T01:59:04.920Z,4.80
2019-01-28T02:01:33.329Z,4.75
2019-01-28T02:04:01.740Z,4.74
2019-01-28T02:06:30.085Z,4.75
2019-01-28T02:08:58.467Z,4.82
2019-01-28T02:11:26.808Z,4.86
2019-01-28T02:13:55.152Z,4.87
2019-01-28T02:16:23.520Z,4.88
2019-01-28T02:18:51.873Z,4.92
2019-01-28T02:21:20.388Z,4.97
2019-01-28T02:23:48.908Z,4.99
2019-01-28T02:26:17.293Z,4.98
2019-01-28T02:28:45.634Z,4.99
2019-01-28T02:31:13.972Z,5.00
2019-01-28T02:33:42.331Z,5.00
2019-01-28T02:36:10.769Z,5.00
2019-01-28T02:38:39.129Z,5.01
2019-01-28T02:41:07.660Z,5.04
2019-01-28T02:43:36.006Z,5.03
2019-01-28T02:46:04.372Z,5.01
2019-01-28T02:48:33.103Z,4.98
2019-01-28T02:51:01.711Z,4.99
2019-01-28T02:53:30.102Z,4.99
2019-01-28T02:55:58.447Z,4.98
2019-01-28T02:58:26.797Z,5.00
2019-01-28T03:00:56.158Z,5.02
2019-01-28T03:03:24.521Z,5.07
2019-01-28T03:05:52.914Z,5.09
2019-01-28T03:08:21.221Z,5.09
2019-01-28T03:10:49.568Z,5.10
2019-01-28T03:13:19.557Z,5.08
2019-01-28T03:15:47.930Z,5.07
2019-01-28T03:18:16.278Z,5.07
2019-01-28T03:20:44.624Z,5.04
2019-01-28T03:23:13.029Z,4.97
2019-01-28T03:25:41.373Z,4.99
2019-01-28T03:28:09.751Z,5.00
2019-01-28T03:30:38.577Z,5.00
2019-01-28T03:33:06.912Z,4.95
2019-01-28T03:35:35.269Z,4.92
2019-01-28T03:38:03.646Z,4.80
2019-01-28T03:40:32.006Z,4.67
2019-01-28T03:43:00.366Z,4.61
2019-01-28T03:45:28.712Z,4.56
2019-01-28T03:47:57.053Z,4.57
2019-01-28T03:50:25.441Z,4.60
2019-01-28T03:52:53.775Z,4.63
2019-01-28T03:55:22.125Z,4.71
2019-01-28T03:57:50.496Z,4.78
2019-01-28T04:00:20.831Z,4.86
2019-01-28T04:02:49.185Z,4.91
2019-01-28T04:05:17.560Z,4.94
2019-01-28T04:07:45.963Z,4.96
2019-01-28T04:10:17.114Z,4.93
2019-01-28T04:12:45.513Z,4.83
2019-01-28T04:15:16.220Z,4.79
2019-01-28T04:17:44.574Z,4.80
2019-01-28T04:20:14.965Z,4.85
2019-01-28T04:22:43.306Z,4.82
2019-01-28T04:25:12.515Z,4.84
2019-01-28T04:27:40.846Z,4.86
2019-01-28T04:30:12.523Z,4.89
2019-01-28T04:32:40.859Z,4.90
2019-01-28T04:35:09.395Z,4.86
2019-01-28T04:37:37.746Z,4.84
2019-01-28T04:40:09.241Z,4.77
2019-01-28T04:42:37.604Z,4.73
2019-01-28T04:45:14.717Z,4.78
2019-01-28T04:47:43.205Z,4.76
2019-01-28T04:50:16.523Z,4.71
2019-01-28T04:52:44.983Z,4.74
2019-01-28T04:55:14.287Z,4.81
2019-01-28T04:57:42.661Z,4.86
2019-01-28T05:00:23.186Z,4.91
2019-01-28T05:02:51.755Z,4.95
2019-01-28T05:05:20.186Z,4.98
2019-01-28T05:07:48.562Z,4.95
2019-01-28T05:10:19.107Z,4.87
2019-01-28T05:12:47.467Z,4.87
2019-01-28T05:15:17.460Z,4.88
2019-01-28T05:17:45.828Z,4.90
2019-01-28T05:20:19.678Z,4.92
2019-01-28T05:22:48.343Z,4.94
2019-01-28T05:25:17.424Z,4.97
2019-01-28T05:27:46.328Z,5.00
2019-01-28T05:30:19.792Z,4.95
2019-01-28T05:32:48.165Z,4.90
2019-01-28T05:35:18.001Z,4.86
2019-01-28T05:37:46.484Z,4.89
2019-01-28T05:40:19.479Z,4.94
2019-01-28T05:42:47.819Z,4.90
2019-01-28T05:45:17.513Z,4.91
2019-01-28T05:47:45.880Z,4.95
2019-01-28T05:50:14.983Z,4.96
2019-01-28T05:52:43.369Z,4.93
2019-01-28T05:55:14.397Z,4.90
2019-01-28T05:57:42.765Z,4.82
2019-01-28T06:00:36.939Z,4.80
2019-01-28T06:03:05.398Z,4.80
2019-01-28T06:05:33.754Z,4.78
2019-01-28T06:08:02.111Z,4.79
2019-01-28T06:10:30.510Z,4.71
2019-01-28T06:12:58.857Z,4.70
2019-01-28T06:15:27.856Z,4.73
2019-01-28T06:17:56.203Z,4.72
2019-01-28T06:20:26.508Z,4.74
2019-01-28T06:22:54.865Z,4.84
2019-01-28T06:25:23.235Z,4.84
2019-01-28T06:27:51.612Z,4.88
2019-01-28T06:30:28.340Z,4.91
2019-01-28T06:32:56.720Z,4.90
2019-01-28T06:35:25.096Z,4.84
2019-01-28T06:37:53.494Z,4.81
2019-01-28T06:40:27.083Z,4.73
2019-01-28T06:42:55.594Z,4.72
2019-01-28T06:45:24.074Z,4.68
2019-01-28T06:47:52.446Z,4.64
2019-01-28T06:50:22.043Z,4.68
2019-01-28T06:52:50.561Z,4.75
2019-01-28T06:55:19.350Z,4.78
2019-01-28T06:57:48.231Z,4.82
2019-01-28T07:00:19.796Z,4.82
2019-01-28T07:02:48.336Z,4.83
2019-01-28T07:05:16.786Z,4.87
2019-01-28T07:07:45.301Z,4.86
2019-01-28T07:10:13.929Z,4.87
2019-01-28T07:12:42.266Z,4.87
2019-01-28T07:15:12.600Z,4.91
2019-01-28T07:17:41.010Z,4.92
2019-01-28T07:20:18.309Z,4.90
2019-01-28T07:22:46.657Z,4.89
2019-01-28T07:25:15.050Z,4.87
2019-01-28T07:27:43.428Z,4.86
2019-01-28T07:30:15.029Z,4.88
2019-01-28T07:32:43.366Z,4.82
2019-01-28T07:35:12.869Z,4.88
2019-01-28T07:37:41.304Z,4.91
2019-01-28T07:40:14.694Z,4.87
2019-01-28T07:42:43.066Z,4.85
2019-01-28T07:45:17.590Z,4.91
2019-01-28T07:47:46.226Z,4.99
2019-01-28T07:50:14.943Z,5.03
2019-01-28T07:52:43.300Z,5.04
2019-01-28T07:55:13.291Z,5.07
2019-01-28T07:57:41.856Z,5.09
2019-01-28T08:00:13.514Z,5.12
2019-01-28T08:02:41.891Z,5.14
2019-01-28T08:05:12.171Z,5.15
2019-01-28T08:07:40.555Z,5.17
2019-01-28T08:10:11.763Z,5.20
2019-01-28T08:12:40.107Z,5.25
2019-01-28T08:15:11.656Z,5.26
2019-01-28T08:17:40.008Z,5.21
2019-01-28T08:20:11.745Z,5.15
2019-01-28T08:22:40.277Z,5.18
2019-01-28T08:25:11.374Z,5.19
2019-01-28T08:27:39.816Z,4.93
2019-01-28T08:30:11.456Z,5.19
2019-01-28T08:32:39.858Z,5.22
2019-01-28T08:35:09.890Z,4.86
2019-01-28T08:37:38.311Z,5.16
2019-01-28T08:40:10.045Z,5.11
2019-01-28T08:42:38.381Z,5.13
2019-01-28T08:45:11.841Z,5.20
2019-01-28T08:47:40.188Z,5.17
2019-01-28T08:50:25.894Z,5.17
2019-01-28T08:52:54.319Z,5.19
2019-01-28T08:55:25.451Z,5.21
2019-01-28T08:57:54.244Z,5.21
2019-01-28T09:00:34.519Z,5.19
2019-01-28T09:03:02.910Z,5.19
2019-01-28T09:05:31.265Z,5.22
2019-01-28T09:07:59.598Z,5.19
2019-01-28T09:10:29.180Z,5.17
2019-01-28T09:12:57.597Z,5.20
2019-01-28T09:15:25.997Z,5.24
2019-01-28T09:17:54.411Z,5.24
2019-01-28T09:20:28.238Z,5.33
2019-01-28T09:22:56.876Z,5.36
2019-01-28T09:25:25.218Z,5.35
2019-01-28T09:27:53.579Z,5.28
2019-01-28T09:30:26.978Z,5.26
2019-01-28T09:32:55.451Z,5.23
2019-01-28T09:35:23.861Z,5.18
2019-01-28T09:37:52.241Z,5.15
2019-01-28T09:40:26.143Z,5.18
2019-01-28T09:42:54.771Z,5.24
2019-01-28T09:45:28.701Z,5.16
2019-01-28T09:47:57.384Z,5.17
2019-01-28T09:50:25.956Z,5.13
2019-01-28T09:52:54.312Z,5.19
2019-01-28T09:55:22.658Z,5.26
2019-01-28T09:57:51.010Z,5.36
2019-01-28T10:00:26.508Z,5.45
2019-01-28T10:02:55.207Z,5.54
2019-01-28T10:05:23.574Z,5.62
2019-01-28T10:07:51.922Z,5.63
2019-01-28T10:10:21.053Z,5.61
2019-01-28T10:12:49.411Z,5.63
2019-01-28T10:15:19.792Z,5.66
2019-01-28T10:17:48.153Z,5.64
2019-01-28T10:20:28.222Z,5.67
2019-01-28T10:22:56.580Z,5.67
2019-01-28T10:25:24.954Z,5.72
2019-01-28T10:27:53.289Z,5.68
2019-01-28T10:30:32.830Z,5.67
2019-01-28T10:33:01.285Z,5.76
2019-01-28T10:35:30.683Z,5.79
2019-01-28T10:37:59.060Z,5.80
2019-01-28T10:40:29.935Z,5.83
2019-01-28T10:42:58.286Z,5.91
2019-01-28T10:45:26.665Z,5.98
2019-01-28T10:48:00.507Z,5.98
2019-01-28T10:50:26.554Z,6.05
2019-01-28T10:52:55.432Z,6.09
2019-01-28T10:55:24.963Z,6.11
2019-01-28T10:57:53.318Z,6.15
2019-01-28T11:00:27.633Z,6.20
2019-01-28T11:02:56.649Z,6.18
2019-01-28T11:05:24.993Z,6.01
2019-01-28T11:07:53.395Z,6.02
2019-01-28T11:10:23.976Z,6.18
2019-01-28T11:12:52.449Z,6.26
2019-01-28T11:15:25.973Z,6.28
2019-01-28T11:17:54.390Z,6.18
2019-01-28T11:20:23.102Z,6.21
2019-01-28T11:22:51.476Z,6.34
2019-01-28T11:25:22.325Z,6.30
2019-01-28T11:27:52.327Z,6.36
2019-01-28T11:30:31.096Z,6.27
2019-01-28T11:32:59.513Z,6.18
2019-01-28T11:35:27.851Z,6.12
2019-01-28T11:37:57.028Z,6.10
2019-01-28T11:40:25.511Z,6.12
2019-01-28T11:42:54.028Z,6.10
2019-01-28T11:45:28.324Z,6.04
2019-01-28T11:47:57.049Z,5.96
2019-01-28T11:50:25.416Z,5.96
2019-01-28T11:52:53.855Z,5.92
2019-01-28T11:55:22.196Z,5.77
2019-01-28T11:57:50.684Z,5.67
2019-01-28T12:00:32.828Z,5.60
2019-01-28T12:03:01.188Z,5.62
2019-01-28T12:05:29.583Z,5.67
2019-01-28T12:07:57.957Z,5.78
2019-01-28T12:10:26.346Z,5.83
2019-01-28T12:12:54.867Z,5.89
2019-01-28T12:15:23.392Z,5.90
2019-01-28T12:17:51.785Z,5.87
2019-01-28T12:20:20.584Z,5.86
2019-01-28T12:22:48.940Z,5.89
2019-01-28T12:25:17.469Z,5.86
2019-01-28T12:27:45.824Z,5.77
2019-01-28T12:30:25.844Z,5.75
2019-01-28T12:32:54.246Z,5.78
2019-01-28T12:35:22.609Z,5.76
2019-01-28T12:37:51.014Z,5.75
2019-01-28T12:40:20.859Z,5.65
2019-01-28T12:42:49.199Z,5.53
2019-01-28T12:45:22.122Z,5.39
2019-01-28T12:47:50.962Z,5.26
2019-01-28T12:50:20.970Z,5.21
2019-01-28T12:52:49.317Z,5.13
2019-01-28T12:55:19.427Z,5.05
2019-01-28T12:57:47.942Z,4.95
2019-01-28T13:00:32.611Z,4.90
2019-01-28T13:03:01.292Z,4.88
2019-01-28T13:05:29.670Z,4.79
2019-01-28T13:07:58.084Z,4.73
2019-01-28T13:10:26.967Z,4.77
2019-01-28T13:12:55.396Z,4.76
2019-01-28T13:15:31.472Z,4.78
2019-01-28T13:17:59.818Z,4.79
2019-01-28T13:20:28.277Z,4.78
2019-01-28T13:22:56.619Z,4.79
2019-01-28T13:25:27.983Z,4.89
2019-01-28T13:27:56.359Z,4.89
2019-01-28T13:30:27.134Z,4.88
2019-01-28T13:32:56.063Z,4.83
2019-01-28T13:35:25.055Z,4.91
2019-01-28T13:37:53.478Z,4.93
2019-01-28T13:40:21.819Z,4.90
2019-01-28T13:42:50.599Z,4.85
2019-01-28T13:45:20.565Z,4.80
2019-01-28T13:47:49.596Z,4.84
2019-01-28T13:50:23.943Z,4.81
2019-01-28T13:52:52.658Z,4.75
2019-01-28T13:55:22.338Z,4.68
2019-01-28T13:57:50.693Z,4.68
2019-01-28T14:00:24.747Z,4.68
2019-01-28T14:02:53.618Z,4.64
2019-01-28T14:05:21.989Z,4.63
2019-01-28T14:07:50.397Z,4.59
2019-01-28T14:10:20.471Z,4.55
2019-01-28T14:12:48.921Z,4.46
2019-01-28T14:15:20.532Z,4.43
2019-01-28T14:17:49.221Z,4.43
2019-01-28T14:20:22.240Z,4.42
2019-01-28T14:22:50.568Z,4.43
2019-01-28T14:25:19.008Z,4.34
2019-01-28T14:27:49.672Z,4.34
2019-01-28T14:30:23.609Z,4.27
2019-01-28T14:32:52.309Z,4.27
2019-01-28T14:35:20.659Z,4.29
2019-01-28T14:37:49.056Z,4.30
2019-01-28T14:40:22.656Z,4.28
2019-01-28T14:42:51.009Z,4.20
2019-01-28T14:45:19.452Z,4.21
2019-01-28T14:47:47.798Z,4.21
2019-01-28T14:50:22.016Z,4.23
2019-01-28T14:52:50.667Z,4.28
2019-01-28T14:55:18.996Z,4.33
2019-01-28T14:57:47.404Z,4.33
2019-01-28T15:00:19.155Z,4.34
2019-01-28T15:02:47.503Z,4.35
2019-01-28T15:05:15.890Z,4.37
2019-01-28T15:07:44.244Z,4.42
2019-01-28T15:10:15.526Z,4.38
2019-01-28T15:12:44.451Z,4.41
2019-01-28T15:15:15.900Z,4.34
2019-01-28T15:17:44.673Z,4.35
2019-01-28T15:20:13.181Z,4.40
2019-01-28T15:22:41.538Z,4.42
2019-01-28T15:25:12.620Z,4.40
2019-01-28T15:27:40.984Z,4.47
2019-01-28T15:30:12.803Z,4.47
2019-01-28T15:32:41.181Z,4.53
2019-01-28T15:35:11.409Z,4.52
2019-01-28T15:37:39.798Z,4.56
2019-01-28T15:40:14.608Z,4.60
2019-01-28T15:42:42.958Z,4.49
2019-01-28T15:45:14.857Z,4.48
2019-01-28T15:47:43.266Z,4.48
2019-01-28T15:50:13.973Z,4.44
2019-01-28T15:52:42.401Z,4.45
2019-01-28T15:55:13.730Z,4.40
2019-01-28T15:57:42.187Z,4.03
2019-01-28T16:00:16.448Z,4.45
2019-01-28T16:02:45.111Z,4.41
2019-01-28T16:05:13.460Z,4.44
2019-01-28T16:07:41.841Z,4.47
2019-01-28T16:10:13.450Z,4.49
2019-01-28T16:12:41.830Z,4.48
2019-01-28T16:15:13.474Z,4.51
2019-01-28T16:17:41.858Z,4.50
2019-01-28T16:20:18.476Z,4.52
2019-01-28T16:22:42.251Z,4.52
2019-01-28T16:25:12.204Z,4.46
2019-01-28T16:27:40.605Z,4.41
2019-01-28T16:30:18.094Z,4.38
2019-01-28T16:32:47.185Z,4.29
2019-01-28T16:35:17.991Z,4.25
2019-01-28T16:37:46.357Z,4.26
2019-01-28T16:40:17.235Z,4.30
2019-01-28T16:42:45.637Z,4.33
2019-01-28T16:45:16.052Z,4.34
2019-01-28T16:47:44.429Z,4.36
2019-01-28T16:50:26.775Z,4.36
2019-01-28T16:52:51.016Z,4.37
2019-01-28T16:55:19.401Z,4.40
2019-01-28T16:57:47.792Z,4.44
2019-01-28T17:00:27.458Z,4.49
2019-01-28T17:02:55.836Z,4.53
2019-01-28T17:05:24.172Z,4.57
2019-01-28T17:07:52.564Z,4.54
2019-01-28T17:10:20.905Z,4.53
2019-01-28T17:12:49.293Z,4.60
2019-01-28T17:15:19.175Z,4.62
2019-01-28T17:17:47.531Z,4.56
2019-01-28T17:20:18.926Z,4.46
2019-01-28T17:22:47.818Z,4.40
2019-01-28T17:25:19.352Z,4.28
2019-01-28T17:27:47.703Z,4.18
2019-01-28T17:30:30.753Z,4.01
2019-01-28T17:32:59.190Z,3.87
2019-01-28T17:35:29.528Z,3.76
2019-01-28T17:37:57.892Z,3.65
2019-01-28T17:40:28.951Z,3.52
2019-01-28T17:42:57.329Z,3.48
2019-01-28T17:45:26.879Z,3.39
2019-01-28T17:47:55.263Z,3.33
2019-01-28T17:50:25.076Z,3.27
2019-01-28T17:52:53.373Z,3.29
2019-01-28T17:55:21.748Z,3.24
2019-01-28T17:57:50.089Z,3.23
2019-01-28T18:00:29.318Z,3.16
2019-01-28T18:02:52.004Z,3.07
2019-01-28T18:05:20.373Z,3.02
2019-01-28T18:07:48.759Z,2.95
2019-01-28T18:10:17.497Z,2.98
2019-01-28T18:12:45.908Z,3.00
2019-01-28T18:15:23.109Z,2.94
2019-01-28T18:17:51.465Z,2.87
2019-01-28T18:20:20.109Z,2.82
2019-01-28T18:22:48.454Z,2.81
2019-01-28T18:25:19.246Z,2.77
2019-01-28T18:27:47.636Z,2.71
2019-01-28T18:30:40.438Z,2.64
2019-01-28T18:33:08.799Z,2.65
2019-01-28T18:35:37.165Z,2.67
2019-01-28T18:38:05.954Z,2.70
2019-01-28T18:40:34.320Z,2.69
2019-01-28T18:43:02.672Z,2.64
2019-01-28T18:45:31.050Z,2.63
2019-01-28T18:47:59.410Z,2.62
2019-01-28T18:50:27.804Z,2.62
2019-01-28T18:52:56.123Z,2.59
2019-01-28T18:55:24.520Z,2.52
2019-01-28T18:57:52.892Z,2.48
2019-01-28T19:00:24.500Z,2.41
2019-01-28T19:02:53.524Z,2.38
2019-01-28T19:05:23.509Z,2.40
2019-01-28T19:07:53.480Z,2.40
2019-01-28T19:10:23.544Z,2.38
2019-01-28T19:12:53.523Z,2.35
2019-01-28T19:15:23.513Z,2.37
2019-01-28T19:17:53.536Z,2.34
2019-01-28T19:20:26.067Z,2.35
2019-01-28T19:22:54.505Z,2.37
2019-01-28T19:25:22.900Z,2.36
2019-01-28T19:27:51.289Z,2.34
2019-01-28T19:30:19.651Z,2.29
2019-01-28T19:32:47.991Z,2.30
2019-01-28T19:35:16.343Z,2.28
2019-01-28T19:37:44.695Z,2.36
2019-01-28T19:40:13.877Z,2.42
2019-01-28T19:42:42.523Z,2.43
2019-01-28T19:45:17.648Z,2.45
2019-01-28T19:47:46.217Z,2.44
2019-01-28T19:50:17.417Z,2.40
2019-01-28T19:52:45.814Z,2.38
2019-01-28T19:55:15.481Z,2.33
2019-01-28T19:57:43.836Z,2.29
2019-01-28T20:00:15.503Z,2.27
2019-01-28T20:02:43.848Z,2.30
2019-01-28T20:05:12.359Z,2.24
2019-01-28T20:07:40.751Z,2.17
2019-01-28T20:10:11.345Z,2.15
2019-01-28T20:12:39.761Z,2.11
2019-01-28T20:15:11.645Z,2.10
2019-01-28T20:17:40.010Z,2.13
2019-01-28T20:20:11.824Z,2.14
2019-01-28T20:22:40.181Z,2.12
2019-01-28T20:25:11.188Z,2.11
2019-01-28T20:27:39.554Z,2.16
2019-01-28T20:30:16.831Z,2.21
2019-01-28T20:32:45.269Z,2.20
2019-01-28T20:35:14.555Z,2.21
2019-01-28T20:37:43.000Z,2.23
2019-01-28T20:40:13.187Z,2.24
2019-01-28T20:42:41.532Z,2.18
2019-01-28T20:45:27.974Z,2.14
2019-01-28T20:47:56.346Z,2.16
2019-01-28T20:50:26.979Z,2.15
2019-01-28T20:52:55.353Z,2.17
2019-01-28T20:55:23.793Z,2.22
2019-01-28T20:57:52.154Z,2.20
2019-01-28T21:00:25.529Z,2.22
2019-01-28T21:02:53.966Z,2.22
2019-01-28T21:05:23.353Z,2.25
2019-01-28T21:07:51.651Z,2.29
2019-01-28T21:10:21.384Z,2.31
2019-01-28T21:12:50.601Z,2.33
2019-01-28T21:15:19.295Z,2.36
2019-01-28T21:17:48.388Z,2.38
2019-01-28T21:20:18.566Z,2.39
2019-01-28T21:22:47.378Z,2.43
2019-01-28T21:25:17.771Z,2.41
2019-01-28T21:27:46.128Z,2.44
2019-01-28T21:30:26.077Z,2.49
2019-01-28T21:32:54.426Z,2.50
2019-01-28T21:35:29.239Z,2.48
2019-01-28T21:38:01.553Z,2.51
2019-01-28T21:40:29.896Z,2.51
2019-01-28T21:42:58.430Z,2.52
2019-01-28T21:45:26.889Z,2.57
2019-01-28T21:47:55.580Z,2.57
2019-01-28T21:50:27.799Z,2.60
2019-01-28T21:52:56.185Z,2.54
2019-01-28T21:55:24.564Z,2.49
2019-01-28T21:57:52.936Z,2.49
2019-01-28T22:00:21.596Z,2.48
2019-01-28T22:02:50.011Z,2.49
2019-01-28T22:05:18.409Z,2.48
2019-01-28T22:07:46.750Z,2.46
2019-01-28T22:10:15.690Z,2.50
2019-01-28T22:12:44.073Z,2.46
2019-01-28T22:15:17.104Z,2.40
2019-01-28T22:17:45.454Z,2.30
2019-01-28T22:20:15.370Z,2.18
2019-01-28T22:22:43.710Z,2.07
2019-01-28T22:25:16.329Z,1.99
2019-01-28T22:27:44.806Z,1.90
2019-01-28T22:30:20.431Z,1.86
2019-01-28T22:32:48.822Z,1.84
2019-01-28T22:35:17.220Z,1.77
2019-01-28T22:37:45.581Z,1.79
2019-01-28T22:40:16.872Z,1.76
2019-01-28T22:42:45.261Z,1.76
2019-01-28T22:45:18.660Z,1.73
2019-01-28T22:47:46.986Z,1.70
2019-01-28T22:50:18.213Z,1.64
2019-01-28T22:52:46.661Z,1.61
2019-01-28T22:55:16.757Z,1.63
2019-01-28T22:57:45.130Z,1.61
2019-01-28T23:00:23.903Z,1.55
2019-01-28T23:02:52.292Z,1.54
2019-01-28T23:05:20.656Z,1.52
2019-01-28T23:07:49.009Z,1.51
2019-01-28T23:10:17.408Z,1.54
2019-01-28T23:12:45.765Z,1.55
2019-01-28T23:15:14.127Z,1.54
2019-01-28T23:17:42.655Z,1.52
2019-01-28T23:20:11.186Z,1.50
2019-01-28T23:22:39.566Z,1.49
2019-01-28T23:25:07.902Z,1.45
2019-01-28T23:27:36.265Z,1.44
2019-01-28T23:30:07.526Z,1.42
2019-01-28T23:32:35.954Z,1.43
2019-01-28T23:35:07.084Z,1.40
2019-01-28T23:37:35.461Z,1.41
2019-01-28T23:40:10.126Z,1.37
2019-01-28T23:42:38.756Z,1.39
2019-01-28T23:45:12.251Z,1.41
2019-01-28T23:47:40.972Z,1.39
2019-01-28T23:50:13.605Z,1.39
2019-01-28T23:52:41.963Z,1.40
2019-01-28T23:55:10.607Z,1.37
2019-01-28T23:57:38.956Z,1.36
